sensor_id;sensor_type;location;lat;lon;timestamp;pressure;altitude;pressure_sealevel;temperature;humidity
33404;BME280;19751;40.274;18.268;2024-02-21T00:00:19;101735.38;;;10.73;100.00
33404;BME280;19751;40.274;18.268;2024-02-21T00:02:44;101722.41;;;10.77;100.00
33404;BME280;19751;40.274;18.268;2024-02-21T00:05:10;101720.91;;;10.74;100.00
33404;BME280;19751;40.274;18.268;2024-02-21T00:07:35;101725.78;;;10.70;100.00
33404;BME280;19751;40.274;18.268;2024-02-21T00:10:00;101716.16;;;10.68;100.00
33404;BME280;19751;40.274;18.268;2024-02-21T00:12:26;101715.13;;;10.61;100.00
33404;BME280;19751;40.274;18.268;2024-02-21T00:14:51;101715.50;;;10.58;100.00
33404;BME280;19751;40.274;18.268;2024-02-21T00:17:16;101714.97;;;10.54;100.00
33404;BME280;19751;40.274;18.268;2024-02-21T00:19:42;101716.31;;;10.50;100.00
33404;BME280;19751;40.274;18.268;2024-02-21T00:22:07;101719.00;;;10.50;100.00
33404;BME280;19751;40.274;18.268;2024-02-21T00:24:33;101710.25;;;10.56;100.00
33404;BME280;19751;40.274;18.268;2024-02-21T00:26:58;101711.28;;;10.63;100.00
33404;BME280;19751;40.274;18.268;2024-02-21T00:29:24;101711.59;;;10.60;100.00
33404;BME280;19751;40.274;18.268;2024-02-21T00:31:49;101710.56;;;10.53;100.00
33404;BME280;19751;40.274;18.268;2024-02-21T00:34:16;101701.47;;;10.46;100.00
33404;BME280;19751;40.274;18.268;2024-02-21T00:36:41;101708.72;;;10.37;100.00
33404;BME280;19751;40.274;18.268;2024-02-21T00:39:06;101709.19;;;10.33;100.00
33404;BME280;19751;40.274;18.268;2024-02-21T00:41:32;101707.34;;;10.33;100.00
33404;BME280;19751;40.274;18.268;2024-02-21T00:43:57;101712.38;;;10.36;100.00
33404;BME280;19751;40.274;18.268;2024-02-21T00:46:22;101706.00;;;10.37;100.00
33404;BME280;19751;40.274;18.268;2024-02-21T00:48:48;101704.16;;;10.38;100.00
33404;BME280;19751;40.274;18.268;2024-02-21T00:51:15;101708.72;;;10.37;100.00
33404;BME280;19751;40.274;18.268;2024-02-21T00:53:40;101707.69;;;10.38;100.00
33404;BME280;19751;40.274;18.268;2024-02-21T00:56:06;101710.72;;;10.43;100.00
33404;BME280;19751;40.274;18.268;2024-02-21T00:58:31;101711.03;;;10.40;100.00
33404;BME280;19751;40.274;18.268;2024-02-21T01:00:57;101702.63;;;10.35;100.00
33404;BME280;19751;40.274;18.268;2024-02-21T01:03:22;101699.41;;;10.32;100.00
33404;BME280;19751;40.274;18.268;2024-02-21T01:05:47;101692.53;;;10.29;100.00
33404;BME280;19751;40.274;18.268;2024-02-21T01:08:12;101693.03;;;10.33;100.00
33404;BME280;19751;40.274;18.268;2024-02-21T01:10:38;101694.03;;;10.40;100.00
33404;BME280;19751;40.274;18.268;2024-02-21T01:13:03;101690.53;;;10.48;100.00
33404;BME280;19751;40.274;18.268;2024-02-21T01:15:29;101695.09;;;10.55;100.00
33404;BME280;19751;40.274;18.268;2024-02-21T01:17:54;101687.34;;;10.60;100.00
33404;BME280;19751;40.274;18.268;2024-02-21T01:20:20;101684.00;;;10.66;100.00
33404;BME280;19751;40.274;18.268;2024-02-21T01:22:46;101675.56;;;10.69;100.00
33404;BME280;19751;40.274;18.268;2024-02-21T01:25:11;101674.41;;;10.72;100.00
33404;BME280;19751;40.274;18.268;2024-02-21T01:27:36;101668.84;;;10.74;100.00
33404;BME280;19751;40.274;18.268;2024-02-21T01:30:02;101673.22;;;10.75;100.00
33404;BME280;19751;40.274;18.268;2024-02-21T01:32:27;101671.53;;;10.74;100.00
33404;BME280;19751;40.274;18.268;2024-02-21T01:34:52;101667.84;;;10.75;100.00
33404;BME280;19751;40.274;18.268;2024-02-21T01:37:18;101671.38;;;10.75;100.00
33404;BME280;19751;40.274;18.268;2024-02-21T01:39:43;101666.00;;;10.75;100.00
33404;BME280;19751;40.274;18.268;2024-02-21T01:42:08;101676.06;;;10.73;100.00
33404;BME280;19751;40.274;18.268;2024-02-21T01:44:34;101665.47;;;10.72;100.00
33404;BME280;19751;40.274;18.268;2024-02-21T01:46:59;101668.84;;;10.74;100.00
33404;BME280;19751;40.274;18.268;2024-02-21T01:49:25;101671.72;;;10.80;100.00
33404;BME280;19751;40.274;18.268;2024-02-21T01:51:50;101658.91;;;10.82;100.00
33404;BME280;19751;40.274;18.268;2024-02-21T01:54:16;101662.59;;;10.81;100.00
33404;BME280;19751;40.274;18.268;2024-02-21T01:56:42;101653.88;;;10.79;100.00
33404;BME280;19751;40.274;18.268;2024-02-21T01:59:08;101655.34;;;10.74;100.00
33404;BME280;19751;40.274;18.268;2024-02-21T02:01:33;101652.00;;;10.72;100.00
33404;BME280;19751;40.274;18.268;2024-02-21T02:03:59;101650.66;;;10.67;100.00
33404;BME280;19751;40.274;18.268;2024-02-21T02:06:24;101656.88;;;10.68;100.00
33404;BME280;19751;40.274;18.268;2024-02-21T02:08:49;101642.06;;;10.64;100.00
33404;BME280;19751;40.274;18.268;2024-02-21T02:11:15;101642.91;;;10.64;100.00
33404;BME280;19751;40.274;18.268;2024-02-21T02:13:41;101638.53;;;10.63;100.00
33404;BME280;19751;40.274;18.268;2024-02-21T02:16:06;101639.53;;;10.54;100.00
33404;BME280;19751;40.274;18.268;2024-02-21T02:18:31;101640.03;;;10.41;100.00
33404;BME280;19751;40.274;18.268;2024-02-21T02:20:57;101637.34;;;10.33;100.00
33404;BME280;19751;40.274;18.268;2024-02-21T02:25:50;101637.78;;;10.20;100.00
33404;BME280;19751;40.274;18.268;2024-02-21T02:28:18;101635.56;;;10.16;100.00
33404;BME280;19751;40.274;18.268;2024-02-21T02:30:44;101621.44;;;10.14;100.00
33404;BME280;19751;40.274;18.268;2024-02-21T02:33:09;101622.63;;;10.19;100.00
33404;BME280;19751;40.274;18.268;2024-02-21T02:35:35;101620.44;;;10.23;100.00
33404;BME280;19751;40.274;18.268;2024-02-21T02:38:01;101623.00;;;10.25;100.00
33404;BME280;19751;40.274;18.268;2024-02-21T02:40:27;101620.44;;;10.23;100.00
33404;BME280;19751;40.274;18.268;2024-02-21T02:42:52;101627.84;;;10.21;100.00
33404;BME280;19751;40.274;18.268;2024-02-21T02:45:20;101625.81;;;10.15;100.00
33404;BME280;19751;40.274;18.268;2024-02-21T02:47:45;101632.00;;;10.07;100.00
33404;BME280;19751;40.274;18.268;2024-02-21T02:50:11;101631.66;;;10.02;100.00
33404;BME280;19751;40.274;18.268;2024-02-21T02:52:36;101625.63;;;10.00;100.00
33404;BME280;19751;40.274;18.268;2024-02-21T02:55:02;101625.25;;;10.03;100.00
33404;BME280;19751;40.274;18.268;2024-02-21T02:57:27;101631.34;;;10.05;100.00
33404;BME280;19751;40.274;18.268;2024-02-21T02:59:53;101631.38;;;10.13;100.00
33404;BME280;19751;40.274;18.268;2024-02-21T03:02:18;101628.19;;;10.18;100.00
33404;BME280;19751;40.274;18.268;2024-02-21T03:04:43;101632.72;;;10.17;100.00
33404;BME280;19751;40.274;18.268;2024-02-21T03:07:09;101631.38;;;10.13;100.00
33404;BME280;19751;40.274;18.268;2024-02-21T03:09:36;101632.38;;;10.12;100.00
33404;BME280;19751;40.274;18.268;2024-02-21T03:12:02;101637.91;;;10.11;100.00
33404;BME280;19751;40.274;18.268;2024-02-21T03:14:30;101643.13;;;10.04;100.00
33404;BME280;19751;40.274;18.268;2024-02-21T03:16:55;101640.41;;;9.96;100.00
33404;BME280;19751;40.274;18.268;2024-02-21T03:19:21;101626.56;;;9.91;100.00
33404;BME280;19751;40.274;18.268;2024-02-21T03:21:46;101635.31;;;9.85;100.00
33404;BME280;19751;40.274;18.268;2024-02-21T03:24:11;101631.25;;;9.81;100.00
33404;BME280;19751;40.274;18.268;2024-02-21T03:26:37;101635.59;;;9.74;100.00
33404;BME280;19751;40.274;18.268;2024-02-21T03:29:03;101630.03;;;9.67;100.00
33404;BME280;19751;40.274;18.268;2024-02-21T03:31:28;101623.44;;;9.61;100.00
33404;BME280;19751;40.274;18.268;2024-02-21T03:33:53;101628.16;;;9.59;100.00
33404;BME280;19751;40.274;18.268;2024-02-21T03:36:19;101632.31;;;9.54;100.00
33404;BME280;19751;40.274;18.268;2024-02-21T03:38:44;101629.31;;;9.57;100.00
33404;BME280;19751;40.274;18.268;2024-02-21T03:41:10;101626.00;;;9.63;100.00
33404;BME280;19751;40.274;18.268;2024-02-21T03:43:37;101625.69;;;9.74;100.00
33404;BME280;19751;40.274;18.268;2024-02-21T03:46:02;101624.84;;;9.74;100.00
33404;BME280;19751;40.274;18.268;2024-02-21T03:48:28;101622.31;;;9.72;100.00
33404;BME280;19751;40.274;18.268;2024-02-21T03:50:53;101625.84;;;9.73;100.00
33404;BME280;19751;40.274;18.268;2024-02-21T03:53:18;101629.56;;;9.71;100.00
33404;BME280;19751;40.274;18.268;2024-02-21T03:55:44;101631.41;;;9.71;100.00
33404;BME280;19751;40.274;18.268;2024-02-21T03:58:09;101636.09;;;9.69;100.00
33404;BME280;19751;40.274;18.268;2024-02-21T04:00:34;101632.72;;;9.67;100.00
33404;BME280;19751;40.274;18.268;2024-02-21T04:02:59;101631.19;;;9.64;100.00
33404;BME280;19751;40.274;18.268;2024-02-21T04:05:25;101632.34;;;9.62;100.00
33404;BME280;19751;40.274;18.268;2024-02-21T04:07:50;101631.69;;;9.60;100.00
33404;BME280;19751;40.274;18.268;2024-02-21T04:10:17;101640.59;;;9.60;100.00
33404;BME280;19751;40.274;18.268;2024-02-21T04:12:42;101636.06;;;9.61;100.00
33404;BME280;19751;40.274;18.268;2024-02-21T04:15:07;101634.06;;;9.63;100.00
33404;BME280;19751;40.274;18.268;2024-02-21T04:17:33;101639.75;;;9.60;100.00
33404;BME280;19751;40.274;18.268;2024-02-21T04:20:04;101648.31;;;9.55;100.00
33404;BME280;19751;40.274;18.268;2024-02-21T04:22:35;101650.78;;;9.49;100.00
33404;BME280;19751;40.274;18.268;2024-02-21T04:25:01;101642.84;;;9.39;100.00
33404;BME280;19751;40.274;18.268;2024-02-21T04:27:26;101648.84;;;9.33;100.00
33404;BME280;19751;40.274;18.268;2024-02-21T04:29:52;101646.81;;;9.27;100.00
33404;BME280;19751;40.274;18.268;2024-02-21T04:32:18;101648.66;;;9.26;100.00
33404;BME280;19751;40.274;18.268;2024-02-21T04:34:43;101652.19;;;9.27;100.00
33404;BME280;19751;40.274;18.268;2024-02-21T04:37:09;101649.00;;;9.31;100.00
33404;BME280;19751;40.274;18.268;2024-02-21T04:39:34;101648.34;;;9.29;100.00
33404;BME280;19751;40.274;18.268;2024-02-21T04:41:59;101647.47;;;9.29;100.00
33404;BME280;19751;40.274;18.268;2024-02-21T04:44:25;101646.63;;;9.28;100.00
33404;BME280;19751;40.274;18.268;2024-02-21T04:46:50;101642.63;;;9.32;100.00
33404;BME280;19751;40.274;18.268;2024-02-21T04:49:16;101648.03;;;9.40;100.00
33404;BME280;19751;40.274;18.268;2024-02-21T04:51:41;101642.34;;;9.43;100.00
33404;BME280;19751;40.274;18.268;2024-02-21T04:54:06;101647.91;;;9.42;100.00
33404;BME280;19751;40.274;18.268;2024-02-21T04:56:32;101655.13;;;9.41;100.00
33404;BME280;19751;40.274;18.268;2024-02-21T04:58:57;101650.44;;;9.43;100.00
33404;BME280;19751;40.274;18.268;2024-02-21T05:01:23;101655.16;;;9.50;100.00
33404;BME280;19751;40.274;18.268;2024-02-21T05:03:48;101658.22;;;9.55;100.00
33404;BME280;19751;40.274;18.268;2024-02-21T05:06:13;101662.59;;;9.56;100.00
33404;BME280;19751;40.274;18.268;2024-02-21T05:08:39;101658.00;;;9.48;100.00
33404;BME280;19751;40.274;18.268;2024-02-21T05:11:04;101656.75;;;9.34;100.00
33404;BME280;19751;40.274;18.268;2024-02-21T05:13:30;101656.53;;;9.28;100.00
33404;BME280;19751;40.274;18.268;2024-02-21T05:15:55;101659.53;;;9.25;100.00
33404;BME280;19751;40.274;18.268;2024-02-21T05:18:20;101661.91;;;9.28;100.00
33404;BME280;19751;40.274;18.268;2024-02-21T05:20:46;101651.47;;;9.25;100.00
33404;BME280;19751;40.274;18.268;2024-02-21T05:23:11;101665.44;;;9.28;100.00
33404;BME280;19751;40.274;18.268;2024-02-21T05:25:37;101657.06;;;9.31;100.00
33404;BME280;19751;40.274;18.268;2024-02-21T05:28:02;101662.75;;;9.28;100.00
33404;BME280;19751;40.274;18.268;2024-02-21T05:30:28;101673.84;;;9.25;100.00
33404;BME280;19751;40.274;18.268;2024-02-21T05:32:53;101668.09;;;9.20;100.00
33404;BME280;19751;40.274;18.268;2024-02-21T05:35:19;101673.31;;;9.21;100.00
33404;BME280;19751;40.274;18.268;2024-02-21T05:37:45;101678.22;;;9.26;100.00
33404;BME280;19751;40.274;18.268;2024-02-21T05:40:11;101682.94;;;9.32;100.00
33404;BME280;19751;40.274;18.268;2024-02-21T05:42:38;101695.72;;;9.30;100.00
33404;BME280;19751;40.274;18.268;2024-02-21T05:45:03;101696.34;;;9.24;100.00
33404;BME280;19751;40.274;18.268;2024-02-21T05:47:29;101699.81;;;9.16;100.00
33404;BME280;19751;40.274;18.268;2024-02-21T05:49:54;101707.66;;;9.10;100.00
33404;BME280;19751;40.274;18.268;2024-02-21T05:52:19;101712.69;;;9.05;100.00
33404;BME280;19751;40.274;18.268;2024-02-21T05:54:45;101707.44;;;9.03;100.00
33404;BME280;19751;40.274;18.268;2024-02-21T05:57:10;101723.44;;;9.05;100.00
33404;BME280;19751;40.274;18.268;2024-02-21T05:59:37;101717.03;;;9.06;100.00
33404;BME280;19751;40.274;18.268;2024-02-21T06:02:05;101723.09;;;9.08;100.00
33404;BME280;19751;40.274;18.268;2024-02-21T06:04:30;101728.88;;;9.13;100.00
33404;BME280;19751;40.274;18.268;2024-02-21T06:06:55;101728.53;;;9.16;100.00
33404;BME280;19751;40.274;18.268;2024-02-21T06:09:21;101737.31;;;9.18;100.00
33404;BME280;19751;40.274;18.268;2024-02-21T06:11:46;101732.28;;;9.23;100.00
33404;BME280;19751;40.274;18.268;2024-02-21T06:14:13;101737.19;;;9.28;100.00
33404;BME280;19751;40.274;18.268;2024-02-21T06:16:38;101739.75;;;9.29;100.00
33404;BME280;19751;40.274;18.268;2024-02-21T06:19:04;101745.31;;;9.36;100.00
33404;BME280;19751;40.274;18.268;2024-02-21T06:21:29;101750.09;;;9.42;100.00
33404;BME280;19751;40.274;18.268;2024-02-21T06:23:55;101757.31;;;9.41;100.00
33404;BME280;19751;40.274;18.268;2024-02-21T06:26:20;101761.16;;;9.39;100.00
33404;BME280;19751;40.274;18.268;2024-02-21T06:28:45;101758.63;;;9.37;100.00
33404;BME280;19751;40.274;18.268;2024-02-21T06:33:15;101766.38;;;9.40;100.00
33404;BME280;19751;40.274;18.268;2024-02-21T06:35:40;101769.44;;;9.45;100.00
33404;BME280;19751;40.274;18.268;2024-02-21T06:38:08;101772.16;;;9.54;100.00
33404;BME280;19751;40.274;18.268;2024-02-21T06:40:33;101765.03;;;9.62;100.00
33404;BME280;19751;40.274;18.268;2024-02-21T06:43:04;101773.81;;;9.73;100.00
33404;BME280;19751;40.274;18.268;2024-02-21T06:45:30;101767.47;;;9.82;100.00
33404;BME280;19751;40.274;18.268;2024-02-21T06:47:55;101777.63;;;9.88;100.00
33404;BME280;19751;40.274;18.268;2024-02-21T06:50:21;101778.66;;;9.95;100.00
33404;BME280;19751;40.274;18.268;2024-02-21T06:52:46;101781.03;;;9.98;100.00
33404;BME280;19751;40.274;18.268;2024-02-21T06:55:12;101776.53;;;10.07;100.00
33404;BME280;19751;40.274;18.268;2024-02-21T06:57:37;101789.00;;;10.16;100.00
33404;BME280;19751;40.274;18.268;2024-02-21T07:00:03;101782.00;;;10.23;100.00
33404;BME280;19751;40.274;18.268;2024-02-21T07:02:28;101785.06;;;10.28;100.00
33404;BME280;19751;40.274;18.268;2024-02-21T07:04:54;101791.50;;;10.35;100.00
33404;BME280;19751;40.274;18.268;2024-02-21T07:07:19;101792.88;;;10.39;100.00
33404;BME280;19751;40.274;18.268;2024-02-21T07:09:45;101799.28;;;10.47;100.00
33404;BME280;19751;40.274;18.268;2024-02-21T07:12:13;101796.09;;;10.51;100.00
33404;BME280;19751;40.274;18.268;2024-02-21T07:14:39;101805.06;;;10.60;100.00
33404;BME280;19751;40.274;18.268;2024-02-21T07:17:04;101806.09;;;10.67;100.00
33404;BME280;19751;40.274;18.268;2024-02-21T07:19:30;101800.03;;;10.73;100.00
33404;BME280;19751;40.274;18.268;2024-02-21T07:21:55;101806.63;;;10.79;100.00
33404;BME280;19751;40.274;18.268;2024-02-21T07:24:21;101808.66;;;10.85;100.00
33404;BME280;19751;40.274;18.268;2024-02-21T07:26:47;101807.13;;;10.90;100.00
33404;BME280;19751;40.274;18.268;2024-02-21T07:29:13;101807.34;;;10.97;100.00
33404;BME280;19751;40.274;18.268;2024-02-21T07:31:41;101816.78;;;11.01;100.00
33404;BME280;19751;40.274;18.268;2024-02-21T07:34:07;101816.28;;;11.06;100.00
33404;BME280;19751;40.274;18.268;2024-02-21T07:36:32;101810.91;;;11.14;100.00
33404;BME280;19751;40.274;18.268;2024-02-21T07:38:58;101809.56;;;11.18;100.00
33404;BME280;19751;40.274;18.268;2024-02-21T07:41:24;101814.28;;;11.24;100.00
33404;BME280;19751;40.274;18.268;2024-02-21T07:43:50;101807.56;;;11.28;100.00
33404;BME280;19751;40.274;18.268;2024-02-21T07:46:15;101817.84;;;11.33;100.00
33404;BME280;19751;40.274;18.268;2024-02-21T07:48:41;101816.50;;;11.37;100.00
33404;BME280;19751;40.274;18.268;2024-02-21T07:51:06;101819.34;;;11.43;100.00
33404;BME280;19751;40.274;18.268;2024-02-21T07:53:32;101819.66;;;11.49;100.00
33404;BME280;19751;40.274;18.268;2024-02-21T07:55:57;101822.53;;;11.55;100.00
33404;BME280;19751;40.274;18.268;2024-02-21T07:58:23;101819.84;;;11.63;100.00
33404;BME280;19751;40.274;18.268;2024-02-21T08:00:48;101823.69;;;11.69;100.00
33404;BME280;19751;40.274;18.268;2024-02-21T08:03:14;101828.25;;;11.77;100.00
33404;BME280;19751;40.274;18.268;2024-02-21T08:05:43;101828.97;;;11.87;100.00
33404;BME280;19751;40.274;18.268;2024-02-21T08:08:08;101826.41;;;11.93;100.00
33404;BME280;19751;40.274;18.268;2024-02-21T08:10:34;101823.88;;;12.00;100.00
33404;BME280;19751;40.274;18.268;2024-02-21T08:12:59;101824.88;;;12.07;100.00
33404;BME280;19751;40.274;18.268;2024-02-21T08:15:25;101824.84;;;12.15;100.00
33404;BME280;19751;40.274;18.268;2024-02-21T08:17:57;101833.09;;;12.22;100.00
33404;BME280;19751;40.274;18.268;2024-02-21T08:20:27;101827.84;;;12.29;100.00
33404;BME280;19751;40.274;18.268;2024-02-21T08:22:52;101829.00;;;12.34;100.00
33404;BME280;19751;40.274;18.268;2024-02-21T08:25:18;101831.66;;;12.42;100.00
33404;BME280;19751;40.274;18.268;2024-02-21T08:27:43;101829.25;;;12.48;100.00
33404;BME280;19751;40.274;18.268;2024-02-21T08:30:10;101832.31;;;12.53;100.00
33404;BME280;19751;40.274;18.268;2024-02-21T08:32:36;101837.34;;;12.56;100.00
33404;BME280;19751;40.274;18.268;2024-02-21T08:35:02;101845.41;;;12.64;100.00
33404;BME280;19751;40.274;18.268;2024-02-21T08:37:28;101840.50;;;12.67;100.00
33404;BME280;19751;40.274;18.268;2024-02-21T08:39:53;101838.97;;;12.73;100.00
33404;BME280;19751;40.274;18.268;2024-02-21T08:42:19;101842.97;;;12.77;100.00
33404;BME280;19751;40.274;18.268;2024-02-21T08:44:45;101849.72;;;12.81;100.00
33404;BME280;19751;40.274;18.268;2024-02-21T08:47:11;101854.78;;;12.84;100.00
33404;BME280;19751;40.274;18.268;2024-02-21T08:49:37;101861.22;;;12.83;100.00
33404;BME280;19751;40.274;18.268;2024-02-21T08:52:02;101860.03;;;12.86;100.00
33404;BME280;19751;40.274;18.268;2024-02-21T08:54:28;101858.81;;;12.88;100.00
33404;BME280;19751;40.274;18.268;2024-02-21T08:56:54;101865.91;;;12.89;100.00
33404;BME280;19751;40.274;18.268;2024-02-21T08:59:20;101867.06;;;12.95;100.00
33404;BME280;19751;40.274;18.268;2024-02-21T09:01:46;101878.53;;;12.97;100.00
33404;BME280;19751;40.274;18.268;2024-02-21T09:04:12;101877.53;;;12.98;100.00
33404;BME280;19751;40.274;18.268;2024-02-21T09:06:37;101877.16;;;13.01;100.00
33404;BME280;19751;40.274;18.268;2024-02-21T09:09:10;101885.13;;;13.03;100.00
33404;BME280;19751;40.274;18.268;2024-02-21T09:11:35;101885.59;;;13.06;100.00
33404;BME280;19751;40.274;18.268;2024-02-21T09:14:01;101888.63;;;13.11;100.00
33404;BME280;19751;40.274;18.268;2024-02-21T09:16:31;101890.09;;;13.14;100.00
33404;BME280;19751;40.274;18.268;2024-02-21T09:18:56;101891.28;;;13.19;100.00
33404;BME280;19751;40.274;18.268;2024-02-21T09:21:22;101894.50;;;13.23;100.00
33404;BME280;19751;40.274;18.268;2024-02-21T09:23:48;101893.47;;;13.24;100.00
33404;BME280;19751;40.274;18.268;2024-02-21T09:26:13;101900.56;;;13.25;100.00
33404;BME280;19751;40.274;18.268;2024-02-21T09:28:41;101897.84;;;13.25;100.00
33404;BME280;19751;40.274;18.268;2024-02-21T09:31:07;101901.03;;;13.29;100.00
33404;BME280;19751;40.274;18.268;2024-02-21T09:33:32;101898.00;;;13.32;100.00
33404;BME280;19751;40.274;18.268;2024-02-21T09:35:58;101900.16;;;13.36;100.00
33404;BME280;19751;40.274;18.268;2024-02-21T09:38:24;101905.88;;;13.41;100.00
33404;BME280;19751;40.274;18.268;2024-02-21T09:40:59;101904.47;;;13.46;100.00
33404;BME280;19751;40.274;18.268;2024-02-21T09:43:26;101901.78;;;13.46;100.00
33404;BME280;19751;40.274;18.268;2024-02-21T09:45:54;101902.91;;;13.51;100.00
33404;BME280;19751;40.274;18.268;2024-02-21T09:48:57;101907.13;;;13.54;100.00
33404;BME280;19751;40.274;18.268;2024-02-21T09:51:23;101901.38;;;13.57;100.00
33404;BME280;19751;40.274;18.268;2024-02-21T09:53:50;101897.28;;;13.61;100.00
33404;BME280;19751;40.274;18.268;2024-02-21T09:56:16;101897.75;;;13.64;100.00
33404;BME280;19751;40.274;18.268;2024-02-21T09:58:42;101891.94;;;13.67;100.00
33404;BME280;19751;40.274;18.268;2024-02-21T10:01:07;101886.72;;;13.66;100.00
33404;BME280;19751;40.274;18.268;2024-02-21T10:03:34;101901.59;;;13.70;100.00
33404;BME280;19751;40.274;18.268;2024-02-21T10:06:00;101892.44;;;13.71;100.00
33404;BME280;19751;40.274;18.268;2024-02-21T10:08:26;101892.44;;;13.71;100.00
33404;BME280;19751;40.274;18.268;2024-02-21T10:10:52;101897.50;;;13.74;100.00
33404;BME280;19751;40.274;18.268;2024-02-21T10:13:25;101893.75;;;13.75;100.00
33404;BME280;19751;40.274;18.268;2024-02-21T10:16:01;101886.31;;;13.77;100.00
33404;BME280;19751;40.274;18.268;2024-02-21T10:18:28;101889.66;;;13.79;100.00
33404;BME280;19751;40.274;18.268;2024-02-21T10:21:04;101892.66;;;13.84;100.00
33404;BME280;19751;40.274;18.268;2024-02-21T10:23:47;101888.94;;;13.85;100.00
33404;BME280;19751;40.274;18.268;2024-02-21T10:26:14;101903.13;;;13.87;100.00
33404;BME280;19751;40.274;18.268;2024-02-21T10:28:40;101893.34;;;13.86;100.00
33404;BME280;19751;40.274;18.268;2024-02-21T10:31:10;101885.19;;;13.86;100.00
33404;BME280;19751;40.274;18.268;2024-02-21T10:33:37;101893.34;;;13.86;100.00
33404;BME280;19751;40.274;18.268;2024-02-21T10:36:12;101890.97;;;13.83;100.00
33404;BME280;19751;40.274;18.268;2024-02-21T10:38:38;101888.56;;;13.88;100.00
33404;BME280;19751;40.274;18.268;2024-02-21T10:41:07;101880.91;;;13.92;100.00
33404;BME280;19751;40.274;18.268;2024-02-21T10:43:39;101872.78;;;13.92;100.00
33404;BME280;19751;40.274;18.268;2024-02-21T10:46:09;101876.53;;;13.91;100.00
33404;BME280;19751;40.274;18.268;2024-02-21T10:48:45;101874.28;;;13.95;100.00
33404;BME280;19751;40.274;18.268;2024-02-21T10:53:45;101863.38;;;14.03;100.00
33404;BME280;19751;40.274;18.268;2024-02-21T10:56:31;101862.16;;;14.05;100.00
33404;BME280;19751;40.274;18.268;2024-02-21T10:59:01;101863.00;;;14.06;100.00
33404;BME280;19751;40.274;18.268;2024-02-21T11:01:28;101854.69;;;14.07;100.00
33404;BME280;19751;40.274;18.268;2024-02-21T11:03:58;101851.16;;;14.07;100.00
33404;BME280;19751;40.274;18.268;2024-02-21T11:06:24;101848.44;;;14.07;100.00
33404;BME280;19751;40.274;18.268;2024-02-21T11:09:08;101840.31;;;14.07;100.00
33404;BME280;19751;40.274;18.268;2024-02-21T11:11:41;101842.34;;;14.05;100.00
33404;BME280;19751;40.274;18.268;2024-02-21T11:14:21;101842.19;;;14.06;100.00
33404;BME280;19751;40.274;18.268;2024-02-21T11:16:47;101838.59;;;14.06;100.00
33404;BME280;19751;40.274;18.268;2024-02-21T11:19:26;101845.91;;;14.05;100.00
33404;BME280;19751;40.274;18.268;2024-02-21T11:21:52;101841.31;;;14.06;100.00
33404;BME280;19751;40.274;18.268;2024-02-21T11:24:29;101839.28;;;14.08;100.00
33404;BME280;19751;40.274;18.268;2024-02-21T11:26:55;101833.50;;;14.11;100.00
33404;BME280;19751;40.274;18.268;2024-02-21T11:29:24;101826.00;;;14.13;100.00
33404;BME280;19751;40.274;18.268;2024-02-21T11:31:51;101832.75;;;14.17;100.00
33404;BME280;19751;40.274;18.268;2024-02-21T11:34:18;101832.38;;;14.20;100.00
33404;BME280;19751;40.274;18.268;2024-02-21T11:36:53;101838.16;;;14.17;100.00
33404;BME280;19751;40.274;18.268;2024-02-21T11:39:23;101836.28;;;14.17;100.00
33404;BME280;19751;40.274;18.268;2024-02-21T11:42:06;101828.63;;;14.21;100.00
33404;BME280;19751;40.274;18.268;2024-02-21T11:44:38;101827.59;;;14.22;100.00
33404;BME280;19751;40.274;18.268;2024-02-21T11:47:05;101823.03;;;14.23;100.00
33404;BME280;19751;40.274;18.268;2024-02-21T11:49:35;101820.13;;;14.24;100.00
33404;BME280;19751;40.274;18.268;2024-02-21T11:52:02;101814.72;;;14.24;100.00
33404;BME280;19751;40.274;18.268;2024-02-21T11:54:30;101822.28;;;14.29;100.00
33404;BME280;19751;40.274;18.268;2024-02-21T11:56:55;101814.16;;;14.29;100.00
33404;BME280;19751;40.274;18.268;2024-02-21T11:59:21;101807.06;;;14.28;100.00
33404;BME280;19751;40.274;18.268;2024-02-21T12:01:47;101801.63;;;14.28;100.00
33404;BME280;19751;40.274;18.268;2024-02-21T12:04:13;101802.47;;;14.28;100.00
33404;BME280;19751;40.274;18.268;2024-02-21T12:06:39;101802.28;;;14.30;100.00
33404;BME280;19751;40.274;18.268;2024-02-21T12:09:07;101802.09;;;14.31;100.00
33404;BME280;19751;40.274;18.268;2024-02-21T12:11:36;101802.09;;;14.31;100.00
33404;BME280;19751;40.274;18.268;2024-02-21T12:14:03;101792.94;;;14.32;100.00
33404;BME280;19751;40.274;18.268;2024-02-21T12:16:30;101811.53;;;14.35;100.00
33404;BME280;19751;40.274;18.268;2024-02-21T12:18:57;101800.69;;;14.35;100.00
33404;BME280;19751;40.274;18.268;2024-02-21T12:21:26;101798.00;;;14.35;100.00
33404;BME280;19751;40.274;18.268;2024-02-21T12:23:55;101803.22;;;14.37;99.99
33404;BME280;19751;40.274;18.268;2024-02-21T12:26:21;101794.72;;;14.40;100.00
33404;BME280;19751;40.274;18.268;2024-02-21T12:28:46;101788.88;;;14.43;100.00
33404;BME280;19751;40.274;18.268;2024-02-21T12:31:12;101786.00;;;14.45;99.11
33404;BME280;19751;40.274;18.268;2024-02-21T12:33:38;101793.09;;;14.46;98.74
33404;BME280;19751;40.274;18.268;2024-02-21T12:36:04;101778.50;;;14.47;97.31